Time;durP1;ratioP1;P1;durP2;ratioP2;P2;SDS_P1;SDS_P2;PMS_P1;PMS_P2;Temp;Humidity;BMP_temperature;BMP_pressure;BME280_temperature;BME280_humidity;BME280_pressure;Samples;Min_cycle;Max_cycle;Signal;HPM_P1;HPM_P2
2021/07/26 00:01:00;;;;;;;;;;;17.90;99.90;;;;;;5010196;28;19921;-86
2021/07/26 00:03:25;;;;;;;;;;;17.80;99.90;;;;;;4994444;28;19925;-86
2021/07/26 00:05:55;;;;;;;;;;;17.80;99.90;;;;;;4998359;28;20308;-85
2021/07/26 00:08:21;;;;;;;;;;;17.80;99.90;;;;;;5010625;28;19925;-86
2021/07/26 00:10:46;;;;;;;;;;;17.80;99.90;;;;;;5011553;28;19987;-86
2021/07/26 00:13:12;;;;;;;;;;;17.80;99.90;;;;;;5027140;28;19929;-86
2021/07/26 00:15:38;;;;;;;;;;;17.80;99.90;;;;;;5010240;28;19925;-86
2021/07/26 00:18:03;;;;;;;;;;;17.90;99.90;;;;;;5027207;28;19928;-86
2021/07/26 00:20:29;;;;;;;;;;;17.90;99.90;;;;;;4995318;28;19975;-86
2021/07/26 00:22:55;;;;;;;;;;;17.90;99.90;;;;;;5026873;28;19936;-86
2021/07/26 00:25:22;;;;;;;;;;;17.90;99.90;;;;;;5011066;28;19925;-86
2021/07/26 00:27:47;;;;;;;;;;;17.90;99.90;;;;;;5025584;28;19964;-86
2021/07/26 00:30:13;;;;;;;;;;;17.80;99.90;;;;;;5011300;28;19968;-86
2021/07/26 00:32:40;;;;;;;;;;;17.90;99.90;;;;;;5027567;28;19928;-87
2021/07/26 00:35:06;;;;;;;;;;;17.90;99.90;;;;;;5024238;28;20364;-86
2021/07/26 00:37:31;;;;;;;;;;;17.90;99.90;;;;;;5030037;28;19932;-86
2021/07/26 00:39:59;;;;;;;;;;;17.90;99.90;;;;;;5027517;28;19928;-86
2021/07/26 00:42:25;;;;;;;;;;;17.90;99.90;;;;;;5010739;28;19925;-86
2021/07/26 00:44:50;;;;;;;;;;;17.90;99.90;;;;;;5010499;28;19932;-86
2021/07/26 00:47:16;;;;;;;;;;;17.80;99.90;;;;;;5025914;28;19960;-86
2021/07/26 00:49:42;;;;;;;;;;;17.90;99.90;;;;;;5001993;28;19921;-86
2021/07/26 00:52:08;;;;;;;;;;;17.90;99.90;;;;;;5017102;28;19985;-86
2021/07/26 00:54:35;;;;;;;;;;;17.80;99.90;;;;;;4990709;28;20023;-86
2021/07/26 00:57:02;;;;;;;;;;;17.80;99.90;;;;;;4973181;28;20381;-86
2021/07/26 00:59:28;;;;;;;;;;;17.70;99.90;;;;;;5009668;28;19925;-86
2021/07/26 01:01:53;;;;;;;;;;;17.80;99.90;;;;;;5009701;28;19932;-86
2021/07/26 01:04:19;;;;;;;;;;;17.70;99.90;;;;;;5010261;28;20325;-86
2021/07/26 01:06:45;;;;;;;;;;;17.70;99.90;;;;;;4993231;28;19925;-86
2021/07/26 01:09:11;;;;;;;;;;;17.70;99.90;;;;;;5010174;28;19944;-86
2021/07/26 01:11:37;;;;;;;;;;;17.70;99.90;;;;;;5027096;28;19968;-86
2021/07/26 01:14:03;;;;;;;;;;;17.70;99.90;;;;;;4994454;28;19975;-86
2021/07/26 01:16:29;;;;;;;;;;;17.70;99.90;;;;;;5025652;28;19929;-86
2021/07/26 01:18:55;;;;;;;;;;;17.70;99.90;;;;;;5010186;28;19925;-86
2021/07/26 01:21:20;;;;;;;;;;;17.70;99.90;;;;;;5010238;28;19928;-86
2021/07/26 01:23:47;;;;;;;;;;;17.70;99.90;;;;;;5010911;28;19929;-86
2021/07/26 01:26:14;;;;;;;;;;;17.70;99.90;;;;;;4991986;28;20281;-85
2021/07/26 01:28:41;;;;;;;;;;;17.70;99.90;;;;;;5028129;28;20051;-86
2021/07/26 01:31:10;;;;;;;;;;;17.70;99.90;;;;;;5028061;28;19925;-86
2021/07/26 01:33:37;;;;;;;;;;;17.70;99.90;;;;;;5010761;28;19995;-86
2021/07/26 01:36:03;;;;;;;;;;;17.70;99.90;;;;;;5011507;28;20423;-86
2021/07/26 01:38:29;;;;;;;;;;;17.70;99.90;;;;;;5026390;28;19963;-86
2021/07/26 01:41:00;;;;;;;;;;;17.70;99.90;;;;;;5026507;28;19960;-86
2021/07/26 01:43:32;;;;;;;;;;;17.80;99.90;;;;;;5027003;28;19928;-86
2021/07/26 01:46:17;;;;;;;;;;;17.70;99.90;;;;;;4999112;28;20020;-86
2021/07/26 01:49:00;;;;;;;;;;;17.70;99.90;;;;;;5026212;28;19925;-85
2021/07/26 01:51:36;;;;;;;;;;;17.60;99.90;;;;;;5027843;28;20526;-86
2021/07/26 01:54:01;;;;;;;;;;;17.60;99.90;;;;;;4994159;28;20031;-86
2021/07/26 01:56:27;;;;;;;;;;;17.50;99.90;;;;;;5011086;28;20023;-86
2021/07/26 01:58:53;;;;;;;;;;;17.50;99.90;;;;;;5013403;28;20434;-85
2021/07/26 02:01:19;;;;;;;;;;;17.50;99.90;;;;;;5030324;28;19925;-86
2021/07/26 02:03:45;;;;;;;;;;;17.40;99.90;;;;;;5013540;28;20383;-87
2021/07/26 02:06:10;;;;;;;;;;;17.40;99.90;;;;;;5025223;28;20008;-86
2021/07/26 02:08:36;;;;;;;;;;;17.40;99.90;;;;;;5009809;28;19951;-86
2021/07/26 02:11:05;;;;;;;;;;;17.40;99.90;;;;;;4978360;28;20376;-86
2021/07/26 02:13:33;;;;;;;;;;;17.40;99.90;;;;;;4978106;28;19937;-86
2021/07/26 02:15:59;;;;;;;;;;;17.40;99.90;;;;;;5009801;28;19933;-86
2021/07/26 02:18:25;;;;;;;;;;;17.30;99.90;;;;;;4976814;28;19929;-86
2021/07/26 02:20:50;;;;;;;;;;;17.30;99.90;;;;;;4993262;28;19968;-86
2021/07/26 02:23:16;;;;;;;;;;;17.30;99.90;;;;;;4991392;28;19990;-86
2021/07/26 02:25:42;;;;;;;;;;;17.20;99.90;;;;;;4994948;28;19929;-86
2021/07/26 02:28:08;;;;;;;;;;;17.20;99.90;;;;;;5030277;28;19952;-86
2021/07/26 02:30:34;;;;;;;;;;;17.20;99.90;;;;;;5030192;28;19921;-86
2021/07/26 02:32:59;;;;;;;;;;;17.20;99.90;;;;;;5012568;28;19971;-86
2021/07/26 02:35:28;;;;;;;;;;;17.20;99.90;;;;;;5013162;28;20019;-86
2021/07/26 02:37:54;;;;;;;;;;;17.20;99.90;;;;;;5010907;28;20339;-86
2021/07/26 02:40:20;;;;;;;;;;;17.20;99.90;;;;;;5012943;28;20012;-86
2021/07/26 02:42:46;;;;;;;;;;;17.20;99.90;;;;;;5012955;28;20044;-86
2021/07/26 02:45:12;;;;;;;;;;;17.10;99.90;;;;;;5029156;28;19921;-86
2021/07/26 02:47:38;;;;;;;;;;;17.10;99.90;;;;;;5027347;28;19948;-85
2021/07/26 02:50:06;;;;;;;;;;;17.10;99.90;;;;;;5013230;28;19921;-86
2021/07/26 02:52:33;;;;;;;;;;;17.10;99.90;;;;;;5012439;28;19928;-86
2021/07/26 02:54:59;;;;;;;;;;;17.20;99.90;;;;;;5030771;28;19975;-86
2021/07/26 02:57:25;;;;;;;;;;;17.20;99.90;;;;;;5027269;28;19925;-86
2021/07/26 02:59:51;;;;;;;;;;;17.20;99.90;;;;;;5030092;28;19959;-86
2021/07/26 03:02:17;;;;;;;;;;;17.20;99.90;;;;;;5012423;28;19925;-86
2021/07/26 03:04:44;;;;;;;;;;;17.20;99.90;;;;;;5012164;28;21359;-85
2021/07/26 03:07:10;;;;;;;;;;;17.20;99.90;;;;;;5013969;28;19925;-86
2021/07/26 03:09:36;;;;;;;;;;;17.20;99.90;;;;;;4992137;28;20020;-86
2021/07/26 03:12:01;;;;;;;;;;;17.20;99.90;;;;;;5010064;28;20401;-86
2021/07/26 03:14:27;;;;;;;;;;;17.20;99.90;;;;;;5008952;28;20613;-86
2021/07/26 03:16:53;;;;;;;;;;;17.20;99.90;;;;;;4994358;28;19925;-86
2021/07/26 03:19:19;;;;;;;;;;;17.20;99.90;;;;;;5025907;28;19929;-86
2021/07/26 03:21:44;;;;;;;;;;;17.20;99.90;;;;;;4993730;28;19929;-86
2021/07/26 03:24:10;;;;;;;;;;;17.20;99.90;;;;;;5005869;28;19928;-86
2021/07/26 03:26:36;;;;;;;;;;;17.20;99.90;;;;;;5008729;28;19918;-86
2021/07/26 03:29:02;;;;;;;;;;;17.20;99.90;;;;;;5027477;28;20829;-86
2021/07/26 03:31:27;;;;;;;;;;;17.20;99.90;;;;;;5009894;28;20023;-86
2021/07/26 03:33:53;;;;;;;;;;;17.20;99.90;;;;;;4994751;28;20339;-86
2021/07/26 03:36:19;;;;;;;;;;;17.20;99.90;;;;;;5009106;28;19933;-86
2021/07/26 03:38:45;;;;;;;;;;;17.20;99.90;;;;;;4992737;28;19931;-86
2021/07/26 03:41:10;;;;;;;;;;;17.10;99.90;;;;;;4999698;28;19921;-86
2021/07/26 03:43:36;;;;;;;;;;;17.10;99.90;;;;;;5025954;28;19925;-86
2021/07/26 03:46:02;;;;;;;;;;;17.10;99.90;;;;;;5008568;28;19932;-85
2021/07/26 03:48:28;;;;;;;;;;;17.10;99.90;;;;;;4993164;28;19925;-86
2021/07/26 03:50:53;;;;;;;;;;;17.10;99.90;;;;;;4993567;28;19925;-87
2021/07/26 03:53:19;;;;;;;;;;;17.10;99.90;;;;;;4993932;28;20011;-86
2021/07/26 03:55:45;;;;;;;;;;;17.20;99.90;;;;;;4994099;28;20075;-86
2021/07/26 03:58:11;;;;;;;;;;;17.20;99.90;;;;;;4993443;28;19921;-86
2021/07/26 04:00:37;;;;;;;;;;;17.20;99.90;;;;;;4993674;28;19973;-87
2021/07/26 04:05:40;;;;;;;;;;;17.30;99.90;;;;;;5026345;28;19932;-86
2021/07/26 04:08:11;;;;;;;;;;;17.30;99.90;;;;;;5032174;28;20372;-86
2021/07/26 04:10:40;;;;;;;;;;;17.30;99.90;;;;;;5034858;28;20297;-86
2021/07/26 04:13:05;;;;;;;;;;;17.40;99.90;;;;;;4993265;28;19925;-86
2021/07/26 04:15:31;;;;;;;;;;;17.40;99.90;;;;;;5024316;28;19929;-86
2021/07/26 04:18:00;;;;;;;;;;;17.50;99.90;;;;;;5008104;28;19929;-87
2021/07/26 04:20:25;;;;;;;;;;;17.50;99.90;;;;;;4983557;28;19928;-87
2021/07/26 04:22:51;;;;;;;;;;;17.50;99.90;;;;;;5040573;28;19921;-87
2021/07/26 04:25:18;;;;;;;;;;;17.50;99.90;;;;;;5023238;28;19928;-86
2021/07/26 04:27:43;;;;;;;;;;;17.60;99.90;;;;;;5003901;28;19925;-86
2021/07/26 04:30:14;;;;;;;;;;;17.60;99.90;;;;;;5009007;28;19925;-86
2021/07/26 04:32:44;;;;;;;;;;;17.60;99.90;;;;;;5021510;28;20047;-86
2021/07/26 04:35:10;;;;;;;;;;;17.70;99.90;;;;;;5011855;28;19932;-86
2021/07/26 04:37:36;;;;;;;;;;;17.70;99.90;;;;;;5026925;28;19947;-87
2021/07/26 04:40:02;;;;;;;;;;;17.70;99.90;;;;;;5026658;28;20385;-87
2021/07/26 04:42:28;;;;;;;;;;;17.80;99.90;;;;;;4997823;28;19931;-86
2021/07/26 04:44:54;;;;;;;;;;;17.80;99.90;;;;;;5032252;28;20027;-86
2021/07/26 04:47:19;;;;;;;;;;;17.90;99.90;;;;;;5039565;28;19956;-87
2021/07/26 04:49:45;;;;;;;;;;;17.90;99.90;;;;;;5021199;28;19983;-86
2021/07/26 04:52:12;;;;;;;;;;;17.90;99.90;;;;;;5008508;28;19925;-86
2021/07/26 04:54:38;;;;;;;;;;;18.00;99.90;;;;;;5017116;28;20297;-86
2021/07/26 04:57:04;;;;;;;;;;;18.00;99.90;;;;;;4993400;28;19952;-85
2021/07/26 04:59:30;;;;;;;;;;;18.00;99.90;;;;;;4993363;28;19952;-86
2021/07/26 05:01:56;;;;;;;;;;;18.00;99.90;;;;;;5008617;28;19928;-86
2021/07/26 05:04:21;;;;;;;;;;;18.00;99.90;;;;;;4993349;28;19921;-87
2021/07/26 05:06:47;;;;;;;;;;;18.00;99.90;;;;;;5011560;28;19977;-86
2021/07/26 05:09:13;;;;;;;;;;;17.90;99.90;;;;;;4993229;28;19971;-86
2021/07/26 05:11:40;;;;;;;;;;;18.00;99.90;;;;;;5007899;28;20392;-86
2021/07/26 05:14:09;;;;;;;;;;;18.00;99.90;;;;;;5009313;28;21008;-87
2021/07/26 05:16:35;;;;;;;;;;;18.00;99.90;;;;;;5025791;28;20366;-86
2021/07/26 05:19:00;;;;;;;;;;;18.00;99.90;;;;;;4992743;28;20016;-86
2021/07/26 05:21:27;;;;;;;;;;;18.00;99.90;;;;;;5025624;28;19925;-87
2021/07/26 05:23:53;;;;;;;;;;;18.00;99.90;;;;;;5027393;28;19933;-87
2021/07/26 05:26:18;;;;;;;;;;;18.00;99.90;;;;;;5009800;28;19932;-87
2021/07/26 05:28:44;;;;;;;;;;;18.00;99.90;;;;;;5016136;28;20020;-89
2021/07/26 05:31:10;;;;;;;;;;;18.10;99.90;;;;;;4996120;28;20392;-88
2021/07/26 05:33:35;;;;;;;;;;;18.10;99.90;;;;;;5029615;28;20277;-86
2021/07/26 05:36:01;;;;;;;;;;;18.10;99.90;;;;;;5031384;28;19984;-86
2021/07/26 05:38:27;;;;;;;;;;;18.10;99.90;;;;;;4996311;28;19929;-87
2021/07/26 05:40:53;;;;;;;;;;;18.20;99.90;;;;;;5030652;28;19921;-86
2021/07/26 05:43:19;;;;;;;;;;;18.20;99.90;;;;;;5012545;28;19979;-87
2021/07/26 05:45:45;;;;;;;;;;;18.20;99.90;;;;;;5029217;28;19925;-85
2021/07/26 05:48:10;;;;;;;;;;;18.30;99.90;;;;;;5030783;28;19932;-86
2021/07/26 05:50:36;;;;;;;;;;;18.30;99.90;;;;;;5013067;28;19932;-86
2021/07/26 05:53:05;;;;;;;;;;;18.40;99.90;;;;;;4995565;28;19990;-87
2021/07/26 05:55:32;;;;;;;;;;;18.40;99.90;;;;;;5011991;28;20019;-87
2021/07/26 05:58:00;;;;;;;;;;;18.40;99.90;;;;;;4996226;28;19925;-88
2021/07/26 06:00:35;;;;;;;;;;;18.50;99.90;;;;;;5030131;28;19925;-87
2021/07/26 06:03:01;;;;;;;;;;;18.50;99.90;;;;;;5011341;28;19929;-88
2021/07/26 06:05:27;;;;;;;;;;;18.50;99.90;;;;;;5029038;28;20381;-85
2021/07/26 06:07:53;;;;;;;;;;;18.60;99.90;;;;;;4996238;28;19928;-90
2021/07/26 06:10:19;;;;;;;;;;;18.60;99.90;;;;;;4997269;28;19925;-90
2021/07/26 06:12:45;;;;;;;;;;;18.60;99.90;;;;;;5029669;28;19947;-91
2021/07/26 06:15:10;;;;;;;;;;;18.60;99.90;;;;;;4989884;28;19984;-91
2021/07/26 06:17:36;;;;;;;;;;;18.60;99.90;;;;;;4994918;28;20371;-88
2021/07/26 06:20:03;;;;;;;;;;;18.60;99.90;;;;;;5016909;28;19968;-89
2021/07/26 06:22:29;;;;;;;;;;;18.70;99.90;;;;;;5031659;28;20325;-88
2021/07/26 06:24:54;;;;;;;;;;;18.70;99.90;;;;;;5011045;28;20008;-88
2021/07/26 06:27:20;;;;;;;;;;;18.70;99.90;;;;;;4995232;28;20472;-89
2021/07/26 06:29:48;;;;;;;;;;;18.70;99.90;;;;;;5011447;28;19987;-88
2021/07/26 06:32:14;;;;;;;;;;;18.80;99.90;;;;;;4994777;28;19925;-89
2021/07/26 06:34:40;;;;;;;;;;;18.80;99.90;;;;;;5010986;28;19936;-89
2021/07/26 06:37:06;;;;;;;;;;;18.80;99.90;;;;;;5025540;28;20404;-88
2021/07/26 06:39:32;;;;;;;;;;;18.80;99.90;;;;;;5027084;28;20012;-89
2021/07/26 06:41:57;;;;;;;;;;;18.80;99.90;;;;;;5026712;28;20020;-89
2021/07/26 06:44:23;;;;;;;;;;;18.90;99.90;;;;;;5008840;28;19965;-89
2021/07/26 06:46:49;;;;;;;;;;;18.90;99.90;;;;;;5028405;28;19929;-89
2021/07/26 06:49:15;;;;;;;;;;;18.90;99.90;;;;;;5010750;28;20000;-89
2021/07/26 06:51:41;;;;;;;;;;;18.90;99.90;;;;;;5009846;28;20064;-89
2021/07/26 06:54:10;;;;;;;;;;;19.00;99.90;;;;;;4996048;28;20098;-89
2021/07/26 06:56:35;;;;;;;;;;;19.00;99.90;;;;;;5011998;28;20057;-88
2021/07/26 06:59:01;;;;;;;;;;;19.00;99.90;;;;;;5017524;28;20395;-89
2021/07/26 07:01:27;;;;;;;;;;;19.00;99.90;;;;;;5010789;28;20062;-89
2021/07/26 07:03:55;;;;;;;;;;;19.10;99.90;;;;;;5010385;28;19936;-89
2021/07/26 07:06:23;;;;;;;;;;;19.10;99.90;;;;;;5019188;28;19925;-88
2021/07/26 07:08:49;;;;;;;;;;;19.10;99.90;;;;;;5022967;28;20305;-88
2021/07/26 07:11:16;;;;;;;;;;;19.10;99.90;;;;;;4990129;28;19966;-86
2021/07/26 07:13:49;;;;;;;;;;;19.10;99.90;;;;;;5009578;28;19932;-87
2021/07/26 07:16:17;;;;;;;;;;;19.10;99.90;;;;;;4989425;28;19956;-87
2021/07/26 07:18:43;;;;;;;;;;;19.20;99.90;;;;;;5016535;28;19964;-87
2021/07/26 07:21:14;;;;;;;;;;;19.20;99.90;;;;;;5010867;28;19964;-87
2021/07/26 07:23:40;;;;;;;;;;;19.20;99.90;;;;;;5006108;28;20416;-86
2021/07/26 07:26:05;;;;;;;;;;;19.20;99.90;;;;;;5007116;28;19961;-86
2021/07/26 07:28:31;;;;;;;;;;;19.20;99.90;;;;;;5001755;28;19925;-87
2021/07/26 07:30:57;;;;;;;;;;;19.20;99.90;;;;;;5026040;28;19925;-86
2021/07/26 07:33:23;;;;;;;;;;;19.30;99.90;;;;;;5008244;28;19929;-87
2021/07/26 07:35:48;;;;;;;;;;;19.30;99.90;;;;;;5025045;28;19925;-86
2021/07/26 07:38:14;;;;;;;;;;;19.30;99.90;;;;;;5024250;28;20340;-86
2021/07/26 07:40:40;;;;;;;;;;;19.30;99.90;;;;;;4991780;28;19929;-87
2021/07/26 07:43:06;;;;;;;;;;;19.30;99.90;;;;;;5007533;28;20036;-86
2021/07/26 07:45:32;;;;;;;;;;;19.40;99.90;;;;;;5024722;28;20316;-86
2021/07/26 07:47:58;;;;;;;;;;;19.40;99.90;;;;;;5006459;28;20282;-86
2021/07/26 07:50:24;;;;;;;;;;;19.40;99.90;;;;;;5026309;28;19952;-86
2021/07/26 07:52:50;;;;;;;;;;;19.50;99.90;;;;;;5024847;28;19929;-87
2021/07/26 07:55:15;;;;;;;;;;;19.50;99.90;;;;;;4993441;28;19933;-86
2021/07/26 07:57:41;;;;;;;;;;;19.60;99.90;;;;;;5026368;28;19971;-86
2021/07/26 08:00:10;;;;;;;;;;;19.60;99.90;;;;;;5010332;28;19932;-87
2021/07/26 08:02:36;;;;;;;;;;;19.60;99.90;;;;;;5009668;28;19931;-89
2021/07/26 08:05:02;;;;;;;;;;;19.70;99.90;;;;;;5009946;28;19929;-89
2021/07/26 08:07:27;;;;;;;;;;;19.70;99.90;;;;;;4992412;28;20323;-88
2021/07/26 08:09:53;;;;;;;;;;;19.80;99.90;;;;;;5027341;28;21026;-88
2021/07/26 08:12:19;;;;;;;;;;;19.90;99.90;;;;;;5009813;28;20359;-88
2021/07/26 08:14:45;;;;;;;;;;;19.90;99.90;;;;;;5009845;28;20447;-89
2021/07/26 08:17:10;;;;;;;;;;;19.90;99.90;;;;;;5009671;28;19940;-88
2021/07/26 08:19:36;;;;;;;;;;;19.90;99.90;;;;;;5002392;28;20325;-88
2021/07/26 08:22:02;;;;;;;;;;;20.00;99.90;;;;;;4985250;28;19967;-89
2021/07/26 08:24:28;;;;;;;;;;;20.00;99.90;;;;;;4994211;28;19925;-88
2021/07/26 08:26:53;;;;;;;;;;;20.00;99.90;;;;;;5010149;28;19921;-88
2021/07/26 08:29:19;;;;;;;;;;;20.10;99.90;;;;;;5009698;28;19990;-88
2021/07/26 08:31:44;;;;;;;;;;;20.20;99.90;;;;;;4993466;28;20389;-88
2021/07/26 08:34:10;;;;;;;;;;;20.20;99.90;;;;;;5009922;28;20439;-89
2021/07/26 08:36:36;;;;;;;;;;;20.30;99.90;;;;;;5010192;28;19925;-88
2021/07/26 08:39:02;;;;;;;;;;;20.30;99.90;;;;;;4993328;28;20297;-88
2021/07/26 08:41:28;;;;;;;;;;;20.30;99.90;;;;;;5009675;28;19944;-89
2021/07/26 08:43:54;;;;;;;;;;;20.30;99.90;;;;;;5010097;28;19925;-88
2021/07/26 08:46:20;;;;;;;;;;;20.30;99.90;;;;;;5009399;28;20047;-88
2021/07/26 08:48:47;;;;;;;;;;;20.40;99.90;;;;;;5008971;28;19948;-89
2021/07/26 08:51:18;;;;;;;;;;;20.50;99.90;;;;;;5009461;28;19921;-88
2021/07/26 08:53:45;;;;;;;;;;;20.60;99.90;;;;;;4993529;28;19935;-89
2021/07/26 08:56:13;;;;;;;;;;;20.70;99.90;;;;;;5003272;28;20372;-88
2021/07/26 08:58:39;;;;;;;;;;;20.70;99.90;;;;;;5024702;28;19932;-87
2021/07/26 09:01:05;;;;;;;;;;;20.80;99.90;;;;;;4993402;28;20449;-86
2021/07/26 09:03:31;;;;;;;;;;;20.90;99.90;;;;;;5009345;28;19975;-86
2021/07/26 09:05:56;;;;;;;;;;;20.90;99.90;;;;;;5029818;28;19925;-86
2021/07/26 09:08:22;;;;;;;;;;;20.90;99.90;;;;;;5028527;28;19952;-89
2021/07/26 09:10:51;;;;;;;;;;;20.90;99.90;;;;;;5012340;28;19974;-87
2021/07/26 09:13:46;;;;;;;;;;;20.80;99.90;;;;;;4994517;28;20385;-87
2021/07/26 09:16:16;;;;;;;;;;;20.90;99.90;;;;;;5024079;28;20285;-88
2021/07/26 09:18:42;;;;;;;;;;;20.90;99.90;;;;;;5009474;28;19925;-88
2021/07/26 09:21:08;;;;;;;;;;;21.00;99.90;;;;;;4978833;28;19932;-88
2021/07/26 09:23:38;;;;;;;;;;;21.10;99.90;;;;;;5031182;28;20396;-88
2021/07/26 09:26:23;;;;;;;;;;;21.20;99.90;;;;;;5009865;28;20427;-88
2021/07/26 09:28:49;;;;;;;;;;;21.30;99.90;;;;;;4989127;28;19958;-87
2021/07/26 09:31:15;;;;;;;;;;;21.30;99.90;;;;;;4973768;28;19966;-85
2021/07/26 09:33:42;;;;;;;;;;;21.40;99.90;;;;;;5009012;28;20011;-86
2021/07/26 09:36:12;;;;;;;;;;;21.50;99.90;;;;;;4989997;28;19922;-87
2021/07/26 09:38:40;;;;;;;;;;;21.50;99.90;;;;;;4972359;28;20016;-88
2021/07/26 09:41:07;;;;;;;;;;;21.60;99.90;;;;;;5007703;28;19941;-87
2021/07/26 09:43:33;;;;;;;;;;;21.70;99.90;;;;;;4997374;28;20400;-88
2021/07/26 09:45:59;;;;;;;;;;;21.80;99.90;;;;;;4995526;28;19932;-89
2021/07/26 09:48:26;;;;;;;;;;;21.80;99.90;;;;;;4989141;28;19979;-91
2021/07/26 09:50:53;;;;;;;;;;;21.90;99.90;;;;;;4992434;28;19929;-90
2021/07/26 09:53:23;;;;;;;;;;;21.90;99.90;;;;;;4982140;28;19925;-90
2021/07/26 09:56:07;;;;;;;;;;;21.90;99.90;;;;;;5021518;28;19936;-92
2021/07/26 09:58:36;;;;;;;;;;;22.00;99.90;;;;;;5026265;28;20142;-91
2021/07/26 10:01:02;;;;;;;;;;;22.10;99.90;;;;;;5010398;28;19929;-91
2021/07/26 10:03:28;;;;;;;;;;;22.20;99.90;;;;;;5011438;28;20064;-91
2021/07/26 10:05:54;;;;;;;;;;;22.30;99.90;;;;;;4976677;28;19925;-89
2021/07/26 10:08:21;;;;;;;;;;;22.30;99.90;;;;;;4991407;28;19932;-87
2021/07/26 10:10:47;;;;;;;;;;;22.50;99.90;;;;;;5010960;28;19929;-93
2021/07/26 10:13:13;;;;;;;;;;;22.50;99.90;;;;;;4982377;28;20289;-93
2021/07/26 10:15:38;;;;;;;;;;;22.60;99.90;;;;;;5000660;28;19982;-93
2021/07/26 10:18:04;;;;;;;;;;;22.70;99.90;;;;;;4999237;28;19956;-92
2021/07/26 10:20:32;;;;;;;;;;;22.70;99.90;;;;;;4997156;28;19929;-92
2021/07/26 10:23:08;;;;;;;;;;;22.80;99.90;;;;;;5005630;28;19928;-93
2021/07/26 10:25:43;;;;;;;;;;;22.80;99.90;;;;;;5029573;28;20397;-93
2021/07/26 10:28:15;;;;;;;;;;;22.80;99.90;;;;;;5013269;28;19925;-92
2021/07/26 10:30:41;;;;;;;;;;;22.80;99.90;;;;;;5040813;28;19925;-93
2021/07/26 10:33:07;;;;;;;;;;;22.90;99.90;;;;;;4995348;28;19944;-93
2021/07/26 10:35:32;;;;;;;;;;;23.00;99.90;;;;;;4999844;28;19979;-93
2021/07/26 10:37:58;;;;;;;;;;;23.00;99.90;;;;;;5039288;28;19928;-93
2021/07/26 10:40:27;;;;;;;;;;;23.00;99.90;;;;;;4996452;28;19925;-92
2021/07/26 10:42:54;;;;;;;;;;;23.00;99.90;;;;;;5026329;28;20035;-94
2021/07/26 10:45:29;;;;;;;;;;;22.90;99.90;;;;;;4996989;28;19933;-93
2021/07/26 10:48:14;;;;;;;;;;;22.90;99.90;;;;;;5039002;28;19921;-93
2021/07/26 10:50:39;;;;;;;;;;;22.80;99.90;;;;;;5029796;28;19924;-93
2021/07/26 10:53:05;;;;;;;;;;;22.80;99.90;;;;;;5036607;28;20420;-91
2021/07/26 10:55:50;;;;;;;;;;;22.80;99.90;;;;;;5016540;28;19952;-93
2021/07/26 10:58:34;;;;;;;;;;;22.80;99.90;;;;;;5038349;28;19986;-93
2021/07/26 11:01:18;;;;;;;;;;;22.90;99.90;;;;;;5012446;28;19971;-93
2021/07/26 11:03:44;;;;;;;;;;;23.00;99.90;;;;;;5014333;28;19925;-93
2021/07/26 11:06:10;;;;;;;;;;;23.20;99.90;;;;;;5023461;28;20285;-93
2021/07/26 11:08:35;;;;;;;;;;;23.30;99.90;;;;;;5017572;28;19988;-93
2021/07/26 11:11:01;;;;;;;;;;;23.40;99.90;;;;;;4996498;28;19921;-94
2021/07/26 11:13:46;;;;;;;;;;;23.40;99.90;;;;;;4994789;28;19935;-93
2021/07/26 11:16:11;;;;;;;;;;;23.40;99.90;;;;;;5032449;28;20015;-93
2021/07/26 11:18:37;;;;;;;;;;;23.30;99.90;;;;;;5030683;28;20071;-93
2021/07/26 11:21:26;;;;;;;;;;;23.30;99.90;;;;;;5034514;28;19925;-93
2021/07/26 11:23:53;;;;;;;;;;;23.30;99.90;;;;;;5012986;28;20056;-93
2021/07/26 11:26:31;;;;;;;;;;;23.20;99.90;;;;;;5006886;28;20299;-94
2021/07/26 11:29:01;;;;;;;;;;;23.10;99.90;;;;;;4979324;28;20327;-93
2021/07/26 11:31:28;;;;;;;;;;;23.10;99.90;;;;;;5010701;28;19948;-93
2021/07/26 11:34:03;;;;;;;;;;;23.10;99.90;;;;;;5021093;28;20385;-93
2021/07/26 11:36:28;;;;;;;;;;;23.10;99.90;;;;;;5001509;28;20339;-96
2021/07/26 11:39:04;;;;;;;;;;;23.20;99.90;;;;;;4996215;28;19921;-93
2021/07/26 11:41:30;;;;;;;;;;;23.30;99.90;;;;;;5030390;28;19928;-93
2021/07/26 11:43:56;;;;;;;;;;;23.30;99.90;;;;;;5013767;28;19925;-94
2021/07/26 11:46:23;;;;;;;;;;;23.40;99.90;;;;;;5014703;28;20711;-94
2021/07/26 11:48:53;;;;;;;;;;;23.40;99.90;;;;;;4997278;28;19933;-93
2021/07/26 11:51:25;;;;;;;;;;;23.30;99.90;;;;;;4994797;28;19967;-91
2021/07/26 11:53:58;;;;;;;;;;;23.10;99.90;;;;;;5029382;28;20393;-94
2021/07/26 11:56:24;;;;;;;;;;;23.00;99.90;;;;;;5001677;28;20345;-95
2021/07/26 11:58:50;;;;;;;;;;;22.90;99.90;;;;;;5003725;28;19911;-96
2021/07/26 12:03:51;;;;;;;;;;;22.80;99.90;;;;;;5034977;23;20489;-85
2021/07/26 12:06:17;;;;;;;;;;;22.60;99.90;;;;;;5010800;28;19921;-84
2021/07/26 12:08:43;;;;;;;;;;;22.40;99.90;;;;;;4997589;28;19961;-85
2021/07/26 12:11:15;;;;;;;;;;;22.30;99.90;;;;;;4994582;28;20481;-84
2021/07/26 12:13:41;;;;;;;;;;;22.30;99.90;;;;;;4995183;28;20448;-85
2021/07/26 12:16:08;;;;;;;;;;;22.20;99.90;;;;;;4994908;28;19929;-84
2021/07/26 12:18:34;;;;;;;;;;;22.30;99.90;;;;;;5010915;28;19925;-84
2021/07/26 12:21:01;;;;;;;;;;;22.30;99.90;;;;;;4994857;28;19968;-84
2021/07/26 12:23:30;;;;;;;;;;;22.40;99.90;;;;;;5010747;28;19964;-84
2021/07/26 12:25:57;;;;;;;;;;;22.50;99.90;;;;;;5011028;28;20438;-84
2021/07/26 12:28:38;;;;;;;;;;;22.60;99.90;;;;;;5027698;28;19975;-85
2021/07/26 12:31:22;;;;;;;;;;;22.60;99.90;;;;;;5028239;28;19951;-84
2021/07/26 12:33:48;;;;;;;;;;;22.60;99.90;;;;;;5028971;28;19929;-85
2021/07/26 12:36:15;;;;;;;;;;;22.70;99.90;;;;;;4994667;28;20024;-86
2021/07/26 12:38:41;;;;;;;;;;;22.70;99.90;;;;;;5026547;28;19983;-86
2021/07/26 12:41:10;;;;;;;;;;;22.60;99.90;;;;;;4997126;28;19925;-86
2021/07/26 12:43:37;;;;;;;;;;;22.70;99.90;;;;;;5028574;28;19921;-86
2021/07/26 12:46:05;;;;;;;;;;;22.80;99.90;;;;;;5010388;28;19945;-86
2021/07/26 12:48:32;;;;;;;;;;;22.70;99.90;;;;;;4994772;28;20339;-85
2021/07/26 12:50:59;;;;;;;;;;;22.70;99.90;;;;;;5010802;28;19971;-86
2021/07/26 12:53:25;;;;;;;;;;;22.60;99.90;;;;;;5010559;28;20419;-86
2021/07/26 12:55:51;;;;;;;;;;;22.60;99.90;;;;;;5010593;28;19929;-86
2021/07/26 12:58:18;;;;;;;;;;;22.60;99.90;;;;;;5009972;28;19952;-86
2021/07/26 13:00:44;;;;;;;;;;;22.70;99.90;;;;;;5028339;28;19921;-88
2021/07/26 13:03:13;;;;;;;;;;;22.80;99.90;;;;;;5023710;28;19932;-86
2021/07/26 13:05:40;;;;;;;;;;;22.90;99.90;;;;;;5014260;28;19978;-87
2021/07/26 13:08:06;;;;;;;;;;;23.00;99.90;;;;;;5046523;28;19948;-86
2021/07/26 13:10:32;;;;;;;;;;;23.00;99.90;;;;;;5053783;28;20682;-86
2021/07/26 13:12:57;;;;;;;;;;;23.10;99.90;;;;;;5048311;28;19935;-86
2021/07/26 13:15:23;;;;;;;;;;;23.20;99.90;;;;;;5035940;28;19959;-86
2021/07/26 13:17:48;;;;;;;;;;;23.20;99.90;;;;;;5030472;28;19956;-86
2021/07/26 13:20:14;;;;;;;;;;;23.20;99.90;;;;;;5030507;28;19932;-86
2021/07/26 13:22:41;;;;;;;;;;;23.30;99.90;;;;;;5050648;28;19931;-86
2021/07/26 13:25:08;;;;;;;;;;;23.40;99.90;;;;;;5028126;28;20023;-87
2021/07/26 13:27:35;;;;;;;;;;;23.40;99.90;;;;;;5029113;28;19974;-87
2021/07/26 13:30:01;;;;;;;;;;;23.40;99.90;;;;;;5030329;28;20418;-87
2021/07/26 13:32:26;;;;;;;;;;;23.50;99.90;;;;;;5013154;28;19972;-86
2021/07/26 13:34:52;;;;;;;;;;;23.50;99.90;;;;;;5029801;28;19979;-87
2021/07/26 13:37:18;;;;;;;;;;;23.50;99.90;;;;;;5025443;28;20400;-87
2021/07/26 13:39:43;;;;;;;;;;;23.60;99.90;;;;;;5029594;28;19929;-86
2021/07/26 13:42:09;;;;;;;;;;;23.70;99.90;;;;;;5019741;28;20443;-87
2021/07/26 13:44:35;;;;;;;;;;;23.80;99.90;;;;;;5013844;28;19925;-87
2021/07/26 13:47:00;;;;;;;;;;;23.80;99.90;;;;;;5014318;28;20451;-86
2021/07/26 13:49:26;;;;;;;;;;;23.90;99.90;;;;;;5030059;28;19944;-85
2021/07/26 13:51:52;;;;;;;;;;;24.00;99.90;;;;;;5050730;28;19951;-86
2021/07/26 13:54:18;;;;;;;;;;;24.00;99.90;;;;;;5017147;28;19932;-86
2021/07/26 13:56:43;;;;;;;;;;;23.90;99.90;;;;;;5020333;28;20246;-86
2021/07/26 13:59:09;;;;;;;;;;;23.90;99.90;;;;;;5024916;28;20438;-86
2021/07/26 14:01:35;;;;;;;;;;;23.80;99.90;;;;;;5052099;28;19924;-86
2021/07/26 14:04:00;;;;;;;;;;;23.70;99.90;;;;;;5034291;28;20550;-86
2021/07/26 14:06:27;;;;;;;;;;;23.60;99.90;;;;;;5038386;28;20406;-87
2021/07/26 14:08:52;;;;;;;;;;;23.50;99.90;;;;;;5033499;28;19920;-87
2021/07/26 14:11:18;;;;;;;;;;;23.40;99.90;;;;;;5030026;28;19921;-86
2021/07/26 14:13:44;;;;;;;;;;;23.30;99.90;;;;;;5015123;28;20381;-86
2021/07/26 14:16:09;;;;;;;;;;;23.20;99.90;;;;;;5017282;28;20310;-87
2021/07/26 14:18:35;;;;;;;;;;;23.20;99.90;;;;;;5033134;28;19921;-86
2021/07/26 14:21:01;;;;;;;;;;;23.10;99.90;;;;;;5033116;28;20351;-87